createdAt,value
2023-03-10T00:01:33.389Z,96402.44
2023-03-10T00:04:03.010Z,96399.03
2023-03-10T00:06:35.210Z,96395.88
2023-03-10T00:09:03.649Z,96392.06
2023-03-10T00:11:31.391Z,96391.09
2023-03-10T00:13:58.687Z,96383.16
2023-03-10T00:16:29.703Z,96379.75
2023-03-10T00:18:57.585Z,96380.97
2023-03-10T00:21:31.778Z,96371.78
2023-03-10T00:23:59.610Z,96364.53
2023-03-10T00:26:29.350Z,96368.91
2023-03-10T00:28:57.360Z,96367.97
2023-03-10T00:31:28.177Z,96374.13
2023-03-10T00:33:57.065Z,96362.19
2023-03-10T00:36:31.312Z,96365.50
2023-03-10T00:39:01.516Z,96361.63
2023-03-10T00:41:32.778Z,96363.00
2023-03-10T00:44:01.112Z,96366.88
2023-03-10T00:46:30.380Z,96358.78
2023-03-10T00:48:57.749Z,96357.13
2023-03-10T00:51:25.614Z,96362.34
2023-03-10T00:53:52.922Z,96364.66
2023-03-10T00:56:25.175Z,96363.31
2023-03-10T00:58:58.831Z,96356.84
2023-03-10T01:01:37.156Z,96348.22
2023-03-10T01:04:14.286Z,96354.00
2023-03-10T01:06:44.690Z,96346.44
2023-03-10T01:09:12.012Z,96342.78
2023-03-10T01:11:39.694Z,96344.69
2023-03-10T01:14:09.238Z,96350.56
2023-03-10T01:16:36.873Z,96345.09
2023-03-10T01:19:04.594Z,96334.38
2023-03-10T01:21:36.338Z,96329.06
2023-03-10T01:24:05.757Z,96333.16
2023-03-10T01:26:33.799Z,96331.22
2023-03-10T01:29:01.197Z,96342.47
2023-03-10T01:31:28.896Z,96341.66
2023-03-10T01:33:56.313Z,96345.31
2023-03-10T01:36:27.046Z,96339.03
2023-03-10T01:38:57.221Z,96335.44
2023-03-10T01:41:25.856Z,96325.84
2023-03-10T01:43:56.682Z,96323.22
2023-03-10T01:46:38.734Z,96323.78
2023-03-10T01:49:45.099Z,96325.59
2023-03-10T01:52:23.644Z,96319.09
2023-03-10T01:55:00.984Z,96321.47
2023-03-10T01:57:36.532Z,96318.00
2023-03-10T02:00:12.419Z,96315.97
2023-03-10T02:03:12.900Z,96321.72
2023-03-10T02:05:50.329Z,96307.63
2023-03-10T02:08:20.572Z,96314.91
2023-03-10T02:10:48.650Z,96310.38
2023-03-10T02:13:16.398Z,96306.25
2023-03-10T02:15:44.129Z,96303.25
2023-03-10T02:18:15.321Z,96309.28
2023-03-10T02:21:32.819Z,96307.09
2023-03-10T02:24:15.202Z,96306.16
2023-03-10T02:26:54.844Z,96302.88
2023-03-10T02:29:58.126Z,96291.94
2023-03-10T02:32:29.492Z,96288.75
2023-03-10T02:34:57.514Z,96282.22
2023-03-10T02:37:30.625Z,96285.38
2023-03-10T02:39:59.275Z,96288.50
2023-03-10T02:42:34.418Z,96285.91
2023-03-10T02:45:04.074Z,96271.53
2023-03-10T02:47:31.354Z,96271.53
2023-03-10T02:49:58.856Z,96268.25
2023-03-10T02:52:43.600Z,96273.44
2023-03-10T02:55:19.222Z,96269.19
2023-03-10T02:57:46.495Z,96270.44
2023-03-10T03:00:14.702Z,96271.13
2023-03-10T03:02:41.960Z,96278.69
2023-03-10T03:05:09.861Z,96276.72
2023-03-10T03:07:37.104Z,96271.41
2023-03-10T03:10:05.663Z,96271.69
2023-03-10T03:12:32.910Z,96254.84
2023-03-10T03:15:00.432Z,96254.03
2023-03-10T03:17:28.782Z,96263.78
2023-03-10T03:19:56.734Z,96248.97
2023-03-10T03:22:24.072Z,96244.84
2023-03-10T03:24:51.624Z,96248.28
2023-03-10T03:27:18.886Z,96252.41
2023-03-10T03:29:46.440Z,96231.16
2023-03-10T03:32:13.705Z,96226.25
2023-03-10T03:35:24.710Z,96225.72
2023-03-10T03:37:54.646Z,96230.22
2023-03-10T03:40:24.715Z,96233.50
2023-03-10T03:42:54.129Z,96225.16
2023-03-10T03:45:26.982Z,96225.72
2023-03-10T03:47:54.623Z,96218.19
2023-03-10T03:50:23.446Z,96215.31
2023-03-10T03:52:51.385Z,96205.06
2023-03-10T03:55:20.348Z,96200.41
2023-03-10T03:57:48.066Z,96206.97
2023-03-10T04:00:21.072Z,96201.25
2023-03-10T04:02:49.144Z,96192.06
2023-03-10T04:05:17.569Z,96198.06
2023-03-10T04:07:48.365Z,96197.53
2023-03-10T04:10:19.900Z,96187.25
2023-03-10T04:12:48.002Z,96176.44
2023-03-10T04:15:15.644Z,96171.53
2023-03-10T04:17:43.184Z,96165.91
2023-03-10T04:20:13.382Z,96156.91
2023-03-10T04:22:42.051Z,96154.97
2023-03-10T04:25:09.944Z,96161.00
2023-03-10T04:27:37.531Z,96161.00
2023-03-10T04:30:07.273Z,96155.13
2023-03-10T04:32:35.008Z,96156.06
2023-03-10T04:35:02.539Z,96161.25
2023-03-10T04:37:30.388Z,96160.19
2023-03-10T04:39:57.640Z,96152.78
2023-03-10T04:42:26.870Z,96152.25
2023-03-10T04:44:54.215Z,96138.81
2023-03-10T04:47:21.790Z,96134.44
2023-03-10T04:49:49.060Z,96140.06
2023-03-10T04:52:17.045Z,96128.72
2023-03-10T04:54:44.311Z,96127.47
2023-03-10T04:57:11.950Z,96124.63
2023-03-10T04:59:39.231Z,96116.41
2023-03-10T05:02:06.893Z,96114.09
2023-03-10T05:04:34.265Z,96110.69
2023-03-10T05:07:01.919Z,96109.44
2023-03-10T05:09:29.162Z,96109.03
2023-03-10T05:11:56.696Z,96104.09
2023-03-10T05:14:23.942Z,96113.66
2023-03-10T05:16:51.506Z,96108.75
2023-03-10T05:19:18.945Z,96098.66
2023-03-10T05:21:46.564Z,96092.88
2023-03-10T05:24:14.008Z,96102.88
2023-03-10T05:26:42.078Z,96084.94
2023-03-10T05:29:09.331Z,96087.66
2023-03-10T05:31:37.030Z,96077.25
2023-03-10T05:34:05.136Z,96084.69
2023-03-10T05:36:32.694Z,96075.06
2023-03-10T05:39:00.600Z,96072.47
2023-03-10T05:41:28.213Z,96062.63
2023-03-10T05:43:56.339Z,96061.38
2023-03-10T05:46:25.001Z,96051.41
2023-03-10T05:48:52.597Z,96044.78
2023-03-10T05:51:20.796Z,96046.84
2023-03-10T05:53:48.373Z,96042.81
2023-03-10T05:56:19.107Z,96038.53
2023-03-10T05:58:48.020Z,96038.78
2023-03-10T06:01:15.292Z,96042.75
2023-03-10T06:03:45.087Z,96039.00
2023-03-10T06:06:13.450Z,96037.06
2023-03-10T06:08:41.937Z,96039.03
2023-03-10T06:11:09.844Z,96039.47
2023-03-10T06:13:37.548Z,96026.63
2023-03-10T06:16:07.218Z,96025.38
2023-03-10T06:18:35.508Z,96027.00
2023-03-10T06:21:13.197Z,96030.59
2023-03-10T06:23:41.663Z,96022.63
2023-03-10T06:26:15.410Z,96028.56
2023-03-10T06:28:46.181Z,96026.03
2023-03-10T06:31:24.693Z,96027.47
2023-03-10T06:33:52.991Z,96027.88
2023-03-10T06:36:23.231Z,96010.06
2023-03-10T06:38:50.836Z,96019.16
2023-03-10T06:41:19.221Z,96019.38
2023-03-10T06:43:48.449Z,96012.72
2023-03-10T06:46:16.506Z,96012.28
2023-03-10T06:48:44.457Z,96000.59
2023-03-10T06:51:17.716Z,95991.75
2023-03-10T06:53:46.314Z,95994.50
2023-03-10T06:56:22.451Z,95978.94
2023-03-10T06:58:50.088Z,95990.13
2023-03-10T07:01:31.882Z,95991.06
2023-03-10T07:04:01.417Z,95975.31
2023-03-10T07:06:30.406Z,95967.69
2023-03-10T07:08:58.615Z,95954.84
2023-03-10T07:11:26.701Z,95968.72
2023-03-10T07:13:55.144Z,95966.03
2023-03-10T07:16:23.337Z,95971.31
2023-03-10T07:18:51.025Z,95977.41
2023-03-10T07:21:21.019Z,95960.94
2023-03-10T07:23:49.420Z,95972.88
2023-03-10T07:26:18.971Z,95973.50
2023-03-10T07:28:47.281Z,95980.47
2023-03-10T07:31:16.386Z,95973.69
2023-03-10T07:33:44.070Z,95972.88
2023-03-10T07:36:18.977Z,95972.13
2023-03-10T07:38:47.122Z,95969.38
2023-03-10T07:41:19.280Z,95994.22
2023-03-10T07:43:47.318Z,95964.91
2023-03-10T07:46:16.110Z,95972.41
2023-03-10T07:48:45.028Z,95962.06
2023-03-10T07:51:15.241Z,95956.47
2023-03-10T07:53:43.049Z,95962.03
2023-03-10T07:56:13.440Z,95961.66
2023-03-10T07:58:41.618Z,95938.91
2023-03-10T08:01:15.650Z,95952.25
2023-03-10T08:03:44.119Z,95943.38
2023-03-10T08:06:18.864Z,95934.28
2023-03-10T08:08:46.614Z,95943.38
2023-03-10T08:11:14.055Z,95936.59
2023-03-10T08:13:42.017Z,95952.53
2023-03-10T08:16:09.620Z,95948.59
2023-03-10T08:18:37.763Z,95966.09
2023-03-10T08:21:07.309Z,95955.50
2023-03-10T08:23:36.867Z,95937.63
2023-03-10T08:26:13.409Z,95939.56
2023-03-10T08:28:41.554Z,95945.56
2023-03-10T08:31:19.391Z,95974.31
2023-03-10T08:33:48.144Z,95933.28
2023-03-10T08:36:22.528Z,95922.84
2023-03-10T08:38:52.738Z,95944.31
2023-03-10T08:41:28.590Z,95927.69
2023-03-10T08:43:58.305Z,95938.34
2023-03-10T08:46:29.197Z,95908.94
2023-03-10T08:48:57.699Z,95917.78
2023-03-10T08:51:25.983Z,95923.53
2023-03-10T08:53:54.536Z,95976.00
2023-03-10T08:56:23.891Z,95936.34
2023-03-10T08:58:55.313Z,95922.69
2023-03-10T09:01:22.764Z,95934.06
2023-03-10T09:03:50.510Z,95934.94
2023-03-10T09:06:18.203Z,95923.28
2023-03-10T09:08:46.016Z,95924.69
2023-03-10T09:11:21.660Z,95930.03
2023-03-10T09:13:49.503Z,95923.88
2023-03-10T09:16:17.767Z,95935.19
2023-03-10T09:18:45.871Z,95911.00
2023-03-10T09:21:16.423Z,95920.31
2023-03-10T09:23:49.057Z,95911.03
2023-03-10T09:26:16.725Z,95921.75
2023-03-10T09:28:44.274Z,95913.00
2023-03-10T09:31:35.291Z,95909.78
2023-03-10T09:34:04.037Z,95936.94
2023-03-10T09:36:32.157Z,95930.56
2023-03-10T09:39:00.626Z,95914.44
2023-03-10T09:41:51.826Z,95925.50
2023-03-10T09:45:03.442Z,95902.81
2023-03-10T09:48:06.752Z,95899.03
2023-03-10T09:50:56.826Z,95907.00
2023-03-10T09:54:11.711Z,95916.09
2023-03-10T09:56:39.512Z,95910.50
2023-03-10T09:59:11.532Z,95906.44
2023-03-10T10:01:45.079Z,95900.59
2023-03-10T10:04:35.432Z,95908.84
2023-03-10T10:07:14.853Z,95901.59
2023-03-10T10:10:05.828Z,95908.25
2023-03-10T10:12:33.863Z,95899.69
2023-03-10T10:15:15.229Z,95903.72
2023-03-10T10:18:24.123Z,95888.31
2023-03-10T10:21:19.318Z,95905.13
2023-03-10T10:23:54.279Z,95912.63
2023-03-10T10:26:27.296Z,95868.78
2023-03-10T10:29:07.095Z,95869.13
2023-03-10T10:31:36.062Z,95895.78
2023-03-10T10:34:19.620Z,95869.25
2023-03-10T10:36:55.301Z,95872.66
2023-03-10T10:39:34.768Z,95915.28
2023-03-10T10:42:24.721Z,95871.75
2023-03-10T10:45:08.076Z,95873.16
2023-03-10T10:47:47.937Z,95880.75
2023-03-10T10:50:35.418Z,95862.84
2023-03-10T10:53:20.787Z,95865.81
2023-03-10T10:56:00.581Z,95854.47
2023-03-10T10:58:37.999Z,95850.47
2023-03-10T11:01:12.898Z,95840.22
2023-03-10T11:03:44.052Z,95853.66
2023-03-10T11:06:27.235Z,95843.13
2023-03-10T11:09:08.940Z,95846.28
2023-03-10T11:12:05.716Z,95833.72
2023-03-10T11:14:49.830Z,95848.53
2023-03-10T11:17:43.146Z,95849.28
2023-03-10T11:20:48.364Z,95848.19
2023-03-10T11:23:26.135Z,95838.75
2023-03-10T11:26:17.597Z,95827.41
2023-03-10T11:29:32.337Z,95823.91
2023-03-10T11:32:41.268Z,95823.22
2023-03-10T11:35:26.901Z,95816.22
2023-03-10T11:38:28.943Z,95808.66
2023-03-10T11:41:05.199Z,95805.28
2023-03-10T11:44:07.057Z,95809.00
2023-03-10T11:46:56.413Z,95799.38
2023-03-10T11:49:27.637Z,95803.56
2023-03-10T11:52:02.498Z,95806.75
2023-03-10T11:54:41.505Z,95806.03
2023-03-10T11:57:40.987Z,95808.81
2023-03-10T12:00:26.151Z,95800.28
2023-03-10T12:03:12.281Z,95800.34
2023-03-10T12:05:58.772Z,95799.44
2023-03-10T12:08:35.064Z,95801.19
2023-03-10T12:11:12.321Z,95807.16
2023-03-10T12:13:55.902Z,95797.50
2023-03-10T12:16:30.210Z,95804.31
2023-03-10T12:18:58.726Z,95789.69
2023-03-10T12:21:32.058Z,95803.25
2023-03-10T12:24:03.381Z,95778.66
2023-03-10T12:27:02.662Z,95777.81
2023-03-10T12:29:44.431Z,95805.03
2023-03-10T12:32:47.467Z,95780.44
2023-03-10T12:35:32.164Z,95778.75
2023-03-10T12:38:39.690Z,95774.63
2023-03-10T12:41:07.829Z,95772.50
2023-03-10T12:43:47.479Z,95766.50
2023-03-10T12:46:58.405Z,95775.09
2023-03-10T12:49:40.928Z,95773.47
2023-03-10T12:52:28.162Z,95776.38
2023-03-10T12:55:22.123Z,95780.53
2023-03-10T12:58:27.392Z,95787.84
2023-03-10T13:01:13.559Z,95788.84
2023-03-10T13:03:52.614Z,95790.94
2023-03-10T13:06:24.681Z,95785.00
2023-03-10T13:09:29.355Z,95779.78
2023-03-10T13:12:29.122Z,95780.59
2023-03-10T13:14:59.890Z,95775.31
2023-03-10T13:17:31.252Z,95771.63
2023-03-10T13:20:28.137Z,95769.38
2023-03-10T13:22:59.646Z,95771.16
2023-03-10T13:25:27.300Z,95773.28
2023-03-10T13:27:57.602Z,95771.41
2023-03-10T13:30:27.988Z,95780.72
2023-03-10T13:33:02.701Z,95768.56
2023-03-10T13:35:31.680Z,95769.50
2023-03-10T13:38:20.835Z,95764.00
2023-03-10T13:40:56.942Z,95766.25
2023-03-10T13:43:37.201Z,95773.97
2023-03-10T13:46:19.683Z,95771.44
2023-03-10T13:48:48.879Z,95767.88
2023-03-10T13:51:25.458Z,95762.66
2023-03-10T13:53:56.017Z,95762.66
2023-03-10T13:56:33.424Z,95762.88
2023-03-10T13:59:03.733Z,95754.28
2023-03-10T14:01:45.627Z,95757.75
2023-03-10T14:04:37.707Z,95749.06
2023-03-10T14:07:26.101Z,95743.06
2023-03-10T14:10:05.329Z,95734.50
2023-03-10T14:12:51.542Z,95749.00
2023-03-10T14:15:38.892Z,95734.19
2023-03-10T14:18:09.599Z,95738.25
2023-03-10T14:20:46.388Z,95735.34
2023-03-10T14:23:20.175Z,95732.53
2023-03-10T14:26:00.792Z,95726.88
2023-03-10T14:28:33.494Z,95751.38
2023-03-10T14:31:06.781Z,95735.47
2023-03-10T14:33:34.435Z,95715.56
2023-03-10T14:36:01.768Z,95725.88
2023-03-10T14:38:29.399Z,95729.66
2023-03-10T14:40:56.924Z,95729.13
2023-03-10T14:43:29.013Z,95727.34
2023-03-10T14:46:01.228Z,95722.50
2023-03-10T14:48:35.804Z,95725.78
2023-03-10T14:51:03.336Z,95720.03
2023-03-10T14:53:31.973Z,95726.88
2023-03-10T14:56:02.727Z,95740.13
2023-03-10T14:59:02.636Z,95734.00
2023-03-10T15:01:31.117Z,95718.84
2023-03-10T15:03:58.950Z,95705.00
2023-03-10T15:06:26.308Z,95687.53
2023-03-10T15:08:53.924Z,95710.31
2023-03-10T15:11:35.625Z,95707.94
2023-03-10T15:14:19.609Z,95714.34
2023-03-10T15:16:46.948Z,95734.78
2023-03-10T15:19:25.204Z,95711.91
2023-03-10T15:21:53.573Z,95702.63
2023-03-10T15:24:21.598Z,95698.19
2023-03-10T15:26:49.040Z,95708.41
2023-03-10T15:29:19.888Z,95737.00
2023-03-10T15:31:47.467Z,95698.44
2023-03-10T15:34:15.363Z,95705.16
2023-03-10T15:36:43.360Z,95692.63
2023-03-10T15:39:14.244Z,95698.50
2023-03-10T15:41:46.559Z,95686.53
2023-03-10T15:44:14.644Z,95686.75
2023-03-10T15:46:42.216Z,95678.38
2023-03-10T15:49:09.852Z,95674.16
2023-03-10T15:51:37.264Z,95673.34
2023-03-10T15:54:05.001Z,95678.03
2023-03-10T15:56:32.367Z,95676.41
2023-03-10T15:59:00.170Z,95677.88
2023-03-10T16:01:27.579Z,95670.16
2023-03-10T16:03:55.348Z,95682.16
2023-03-10T16:06:29.418Z,95674.09
2023-03-10T16:08:57.827Z,95682.22
2023-03-10T16:11:25.201Z,95675.94
2023-03-10T16:13:52.800Z,95675.53
2023-03-10T16:16:23.531Z,95677.78
2023-03-10T16:18:52.425Z,95679.38
2023-03-10T16:21:20.163Z,95676.72
2023-03-10T16:23:48.259Z,95679.13
2023-03-10T16:26:18.927Z,95672.84
2023-03-10T16:28:53.826Z,95670.75
2023-03-10T16:31:26.455Z,95683.06
2023-03-10T16:33:55.620Z,95674.75
2023-03-10T16:36:26.989Z,95673.69
2023-03-10T16:38:55.355Z,95668.97
2023-03-10T16:41:24.019Z,95676.38
2023-03-10T16:43:52.646Z,95666.47
2023-03-10T16:46:25.678Z,95665.75
2023-03-10T16:48:55.160Z,95665.84
2023-03-10T16:51:39.640Z,95664.19
2023-03-10T16:54:11.489Z,95663.28
2023-03-10T16:56:44.692Z,95668.59
2023-03-10T16:59:24.902Z,95679.00
2023-03-10T17:01:52.504Z,95672.53
2023-03-10T17:04:21.009Z,95671.25
2023-03-10T17:06:48.991Z,95672.81
2023-03-10T17:09:18.420Z,95696.13
2023-03-10T17:11:55.197Z,95681.50
2023-03-10T17:14:23.724Z,95680.28
2023-03-10T17:16:51.502Z,95679.28
2023-03-10T17:19:28.881Z,95685.47
2023-03-10T17:21:58.380Z,95681.97
2023-03-10T17:24:26.846Z,95674.75
2023-03-10T17:26:54.391Z,95680.88
2023-03-10T17:29:22.019Z,95672.00
2023-03-10T17:31:51.689Z,95673.13
2023-03-10T17:34:20.261Z,95662.72
2023-03-10T17:36:51.118Z,95666.06
2023-03-10T17:39:22.635Z,95670.56
2023-03-10T17:41:50.169Z,95661.84
2023-03-10T17:44:18.648Z,95657.09
2023-03-10T17:46:46.154Z,95661.34
2023-03-10T17:49:15.583Z,95651.81
2023-03-10T17:51:44.599Z,95649.19
2023-03-10T17:54:22.165Z,95647.88
2023-03-10T17:56:50.973Z,95642.44
2023-03-10T17:59:19.035Z,95639.91
2023-03-10T18:01:46.851Z,95632.34
2023-03-10T18:04:14.516Z,95638.41
2023-03-10T18:06:42.135Z,95644.09
2023-03-10T18:09:14.954Z,95646.88
2023-03-10T18:11:42.603Z,95647.97
2023-03-10T18:14:10.274Z,95647.72
2023-03-10T18:16:40.678Z,95645.25
2023-03-10T18:19:10.806Z,95657.72
2023-03-10T18:21:39.327Z,95657.88
2023-03-10T18:24:08.476Z,95664.50
2023-03-10T18:26:36.743Z,95661.75
2023-03-10T18:29:04.803Z,95656.59
2023-03-10T18:31:34.704Z,95648.75
2023-03-10T18:34:03.403Z,95647.69
2023-03-10T18:36:32.230Z,95646.06
2023-03-10T18:39:02.490Z,95643.31
2023-03-10T18:41:48.778Z,95652.72
2023-03-10T18:44:16.430Z,95646.66
2023-03-10T18:46:45.197Z,95651.44
2023-03-10T18:49:12.900Z,95643.53
2023-03-10T18:51:40.366Z,95652.63
2023-03-10T18:54:08.130Z,95646.94
2023-03-10T18:56:35.604Z,95637.63
2023-03-10T18:59:03.852Z,95632.31
2023-03-10T19:01:31.497Z,95634.28
2023-03-10T19:03:59.334Z,95630.03
2023-03-10T19:06:34.370Z,95631.66
2023-03-10T19:09:02.583Z,95634.28
2023-03-10T19:11:38.318Z,95630.84
2023-03-10T19:14:07.246Z,95638.63
2023-03-10T19:16:40.116Z,95634.44
2023-03-10T19:19:07.867Z,95630.19
2023-03-10T19:21:37.239Z,95628.41
2023-03-10T19:24:06.047Z,95632.88
2023-03-10T19:26:33.638Z,95629.34
2023-03-10T19:29:01.614Z,95627.06
2023-03-10T19:31:28.967Z,95629.09
2023-03-10T19:33:56.642Z,95624.34
2023-03-10T19:36:27.094Z,95628.78
2023-03-10T19:38:54.699Z,95624.53
2023-03-10T19:41:22.064Z,95632.25
2023-03-10T19:43:51.196Z,95626.69
2023-03-10T19:46:20.281Z,95625.28
2023-03-10T19:48:48.015Z,95624.41
2023-03-10T19:51:23.019Z,95611.34
2023-03-10T19:53:53.176Z,95611.97
2023-03-10T19:56:21.173Z,95604.22
2023-03-10T19:58:50.138Z,95610.31
2023-03-10T20:01:26.208Z,95605.22
2023-03-10T20:03:58.648Z,95603.28
2023-03-10T20:06:26.545Z,95606.34
2023-03-10T20:08:54.630Z,95606.19
2023-03-10T20:11:22.188Z,95603.75
2023-03-10T20:13:53.223Z,95591.66
2023-03-10T20:16:22.747Z,95597.31
2023-03-10T20:18:50.402Z,95587.88
2023-03-10T20:21:17.941Z,95584.00
2023-03-10T20:23:47.725Z,95581.44
2023-03-10T20:26:16.496Z,95574.53
2023-03-10T20:28:45.444Z,95568.72
2023-03-10T20:31:23.256Z,95572.59
2023-03-10T20:33:51.272Z,95574.34
2023-03-10T20:36:18.743Z,95576.34
2023-03-10T20:38:47.519Z,95569.78
2023-03-10T20:41:17.246Z,95557.38
2023-03-10T20:43:45.389Z,95562.38
2023-03-10T20:46:13.946Z,95558.50
2023-03-10T20:48:41.676Z,95552.50
2023-03-10T20:51:09.120Z,95551.03
2023-03-10T20:53:37.441Z,95546.13
2023-03-10T20:56:10.087Z,95544.31
2023-03-10T20:58:38.539Z,95540.44
2023-03-10T21:01:06.448Z,95538.06
2023-03-10T21:03:34.232Z,95538.41
2023-03-10T21:06:01.596Z,95540.53
2023-03-10T21:08:29.284Z,95538.25
2023-03-10T21:10:56.715Z,95545.22
2023-03-10T21:13:24.377Z,95540.34
2023-03-10T21:15:53.183Z,95543.28
2023-03-10T21:18:20.795Z,95541.47
2023-03-10T21:20:48.071Z,95536.72
2023-03-10T21:23:15.637Z,95531.66
2023-03-10T21:25:42.926Z,95535.53
2023-03-10T21:28:11.064Z,95532.44
2023-03-10T21:30:39.140Z,95523.25
2023-03-10T21:33:08.112Z,95525.69
2023-03-10T21:35:38.607Z,95520.94
2023-03-10T21:38:06.760Z,95529.00
2023-03-10T21:40:34.316Z,95521.13
2023-03-10T21:43:02.845Z,95519.31
2023-03-10T21:45:30.339Z,95516.13
2023-03-10T21:47:57.954Z,95503.91
2023-03-10T21:50:25.330Z,95517.91
2023-03-10T21:52:53.875Z,95516.66
2023-03-10T21:55:25.655Z,95510.38
2023-03-10T21:57:53.345Z,95517.69
2023-03-10T22:00:23.391Z,95532.19
2023-03-10T22:02:53.007Z,95512.09
2023-03-10T22:05:21.516Z,95511.19
2023-03-10T22:07:49.209Z,95503.63
2023-03-10T22:10:17.778Z,95512.41
2023-03-10T22:12:45.585Z,95504.97
2023-03-10T22:15:19.836Z,95498.75
2023-03-10T22:17:48.160Z,95500.16
2023-03-10T22:20:20.842Z,95491.78
2023-03-10T22:22:49.333Z,95490.28
2023-03-10T22:25:18.124Z,95485.81
2023-03-10T22:27:51.582Z,95496.66
2023-03-10T22:30:21.913Z,95488.28
2023-03-10T22:32:49.581Z,95493.13
2023-03-10T22:35:17.974Z,95492.63
2023-03-10T22:37:45.530Z,95471.66
2023-03-10T22:40:17.895Z,95471.06
2023-03-10T22:42:46.176Z,95468.41
2023-03-10T22:45:25.288Z,95468.38
2023-03-10T22:47:57.099Z,95465.88
2023-03-10T22:50:35.474Z,95479.84
2023-03-10T22:53:07.475Z,95471.88
2023-03-10T22:55:35.829Z,95479.38
2023-03-10T22:58:06.859Z,95469.13
2023-03-10T23:00:34.950Z,95464.94
2023-03-10T23:03:04.958Z,95468.81
2023-03-10T23:05:32.955Z,95464.56
2023-03-10T23:08:00.377Z,95470.00
2023-03-10T23:10:32.498Z,95480.28
2023-03-10T23:13:11.919Z,95466.81
2023-03-10T23:15:39.902Z,95460.13
2023-03-10T23:18:08.247Z,95468.72
2023-03-10T23:20:44.122Z,95466.31
2023-03-10T23:23:14.757Z,95478.34
2023-03-10T23:25:47.270Z,95469.09
2023-03-10T23:28:16.049Z,95458.38
2023-03-10T23:30:46.648Z,95462.78
2023-03-10T23:33:21.823Z,95464.44
2023-03-10T23:35:54.425Z,95475.69
2023-03-10T23:38:25.300Z,95467.50
2023-03-10T23:40:55.508Z,95453.31
2023-03-10T23:43:23.357Z,95467.47
2023-03-10T23:45:51.082Z,95461.97
2023-03-10T23:48:19.413Z,95462.00
2023-03-10T23:50:48.918Z,95456.78
2023-03-10T23:53:20.903Z,95472.78
2023-03-10T23:55:48.926Z,95451.78
2023-03-10T23:58:19.720Z,95465.25
